Pagrindinis puslapis
METAR-TAF:

METAR-TAF

Oro uostai :

Havana, Kuba

platuma: 22-59N, ilguma: 082-24W, Aukštis: 59 m

Dabartinis oras

Ataskaita buvo paskelbta 17 minutes, ne 04:55 UTC
Vėjas 5 kt iš Šiaurės Rytų
Temperatūra 24°C
Drėgmė 89%
Slėgis 1018 hPa
Matomumas: 9000 m
Mažai debesys ne aukštis 3000 ft

METAR: MUHA 070455Z 05005KT 9000 FEW030 24/22 Q1018

Laikas: 01:12 (05:12 UTC)

Prognozė

Ataskaita buvo paskelbta 6 valandos ir 12 minutes, ne 23:00 UTC
Prognozė galioja nuo 07 metu 00 UTC su 07 metu 24 UTC
Vėjas 7 kt iš Šiaurės/Šiaurės Rytų
Matomumas: 9000 m
Mažai debesys ne aukštis 3000 ft
Tapsmas
nuo 07 metu 06 UTC su 07 metu 08 UTC
Vėjas 3 kt nuo kintamojo kryptimis
Tapsmas
nuo 07 metu 16 UTC su 07 metu 18 UTC
Vėjas 8 kt iš Šiaurės
Tapsmas
nuo 07 metu 19 UTC su 07 metu 21 UTC
Išsisklaidę debesys ne aukštis 3000 ft

TAF: MUHA 062300Z 0700/0724 02007KT 9000 FEW030 BECMG 0706/0708 VRB03KT BECMG 0716/0718 01008KT BECMG 0719/0721 SCT030

Orai ataskaitas ir orų prognozės (METAR, TAF).

turimą stotys yra geltonos ir raudonos taškus žemėlapyje.

Perkelti pele per norėdami pamatyti stoties vardą.

Tada spustelėkite, norėdami matyti oro stebėjimo ir prognozės.

Norėdami pakeisti žemėlapį: spustelėkite ant žalios mygtukų su juodo kryžiaus žemyn,; žalią mygtuką su brūkšneliu, jei norite nutolinti; arba žalių rodyklių gretimoms žemėlapius.


METAR-TAF: